Time;durP1;ratioP1;P1;durP2;ratioP2;P2;SDS_P1;SDS_P2;PMS_P1;PMS_P2;Temp;Humidity;BMP_temperature;BMP_pressure;BME280_temperature;BME280_humidity;BME280_pressure;Samples;Min_cycle;Max_cycle;Signal;HPM_P1;HPM_P2
2024/04/15 00:00:07;;;;;;;7.22;3.55;;;;;;;14.49;88.80;99832.30;1776858;81;21107;-76
2024/04/15 00:02:37;;;;;;;4.60;3.70;;;;;;;14.46;88.92;99838.82;1776371;81;21379;-75
2024/04/15 00:05:06;;;;;;;5.03;3.67;;;;;;;14.44;89.11;99832.16;1776729;81;21066;-75
2024/04/15 00:07:34;;;;;;;6.20;3.50;;;;;;;14.44;89.29;99829.95;1776890;81;20963;-76
2024/04/15 00:10:03;;;;;;;7.47;3.45;;;;;;;14.44;89.39;99838.22;1776967;81;21082;-76
2024/04/15 00:12:31;;;;;;;4.10;3.15;;;;;;;14.44;89.56;99834.08;1776899;80;21043;-76
2024/04/15 00:15:00;;;;;;;6.67;3.50;;;;;;;14.43;89.62;99836.00;1776769;81;21034;-75
2024/04/15 00:17:28;;;;;;;5.62;3.30;;;;;;;14.40;89.63;99842.48;1776797;80;21007;-75
2024/04/15 00:19:56;;;;;;;6.58;3.58;;;;;;;14.39;89.63;99843.03;1776746;81;21435;-76
2024/04/15 00:22:25;;;;;;;5.05;3.40;;;;;;;14.37;89.54;99845.18;1728097;81;21015;-76
2024/04/15 00:24:53;;;;;;;5.65;3.05;;;;;;;14.35;89.24;99848.71;1776911;80;21063;-75
2024/04/15 00:27:21;;;;;;;8.50;2.98;;;;;;;14.31;88.30;99853.02;1776757;80;21041;-75
2024/04/15 00:29:49;;;;;;;5.85;3.00;;;;;;;14.24;87.14;99850.33;1776753;81;20991;-76
2024/04/15 00:32:18;;;;;;;5.60;2.90;;;;;;;14.20;86.05;99847.74;1776744;81;21050;-76
2024/04/15 00:34:48;;;;;;;5.72;2.80;;;;;;;14.17;85.57;99835.81;1776770;81;21469;-75
2024/04/15 00:37:17;;;;;;;4.08;2.80;;;;;;;14.19;85.11;99841.93;1729273;81;21043;-76
2024/04/15 00:39:45;;;;;;;6.60;3.00;;;;;;;14.20;84.74;99845.52;1777923;80;21007;-76
2024/04/15 00:42:13;;;;;;;5.22;2.92;;;;;;;14.18;84.18;99854.02;1776798;80;21011;-76
2024/04/15 00:44:42;;;;;;;4.95;3.15;;;;;;;14.17;83.89;99857.02;1776780;80;20983;-75
2024/04/15 00:47:11;;;;;;;4.70;3.22;;;;;;;14.14;83.51;99859.70;1776629;80;21011;-76
2024/04/15 00:49:39;;;;;;;5.10;3.10;;;;;;;14.12;83.15;99854.13;1776820;81;20983;-75
2024/04/15 00:52:07;;;;;;;6.47;2.80;;;;;;;14.07;82.90;99852.06;1776944;80;21034;-77
2024/04/15 00:54:36;;;;;;;6.12;3.00;;;;;;;14.02;82.94;99853.31;1776931;80;21058;-76
2024/04/15 00:57:05;;;;;;;5.30;3.20;;;;;;;14.02;83.04;99853.31;1776698;81;20975;-75
2024/04/15 00:59:34;;;;;;;4.33;3.08;;;;;;;14.01;83.14;99850.25;1776684;81;21023;-75
2024/04/15 01:02:02;;;;;;;6.45;3.05;;;;;;;14.01;83.29;99857.67;1776882;80;21051;-77
2024/04/15 01:04:31;;;;;;;4.97;3.20;;;;;;;13.97;83.52;99854.55;1776697;81;21512;-75
2024/04/15 01:06:59;;;;;;;4.67;3.45;;;;;;;13.92;83.88;99864.05;1776693;81;21030;-76
2024/04/15 01:09:28;;;;;;;5.17;3.35;;;;;;;13.89;84.32;99854.87;1776646;80;21059;-75
2024/04/15 01:11:56;;;;;;;5.72;3.45;;;;;;;13.86;84.72;99860.31;1776774;81;21027;-76
2024/04/15 01:14:24;;;;;;;8.30;3.22;;;;;;;13.85;85.11;99865.51;1776749;81;21920;-75
2024/04/15 01:16:52;;;;;;;7.40;3.67;;;;;;;13.85;85.43;99864.13;1776704;81;21031;-75
2024/04/15 01:19:21;;;;;;;6.40;3.00;;;;;;;13.85;85.71;99867.42;1776938;81;21050;-75
2024/04/15 01:21:49;;;;;;;5.12;3.20;;;;;;;13.87;85.94;99866.66;1776929;80;20979;-76
2024/04/15 01:24:17;;;;;;;4.30;3.22;;;;;;;13.87;86.10;99861.98;1776812;80;21024;-76
2024/04/15 01:26:47;;;;;;;7.37;3.33;;;;;;;13.87;85.78;99870.25;1776669;80;21035;-76
2024/04/15 01:29:15;;;;;;;4.92;3.30;;;;;;;13.79;85.08;99873.86;1776825;81;21069;-75
2024/04/15 01:31:43;;;;;;;5.67;3.33;;;;;;;13.72;85.04;99871.72;1776728;80;21011;-77
2024/04/15 01:34:12;;;;;;;5.80;3.00;;;;;;;13.69;84.94;99881.83;1776806;81;21014;-75
2024/04/15 01:36:40;;;;;;;5.33;2.62;;;;;;;13.71;84.87;99880.52;1776944;81;20963;-76
2024/04/15 01:39:09;;;;;;;5.70;2.33;;;;;;;13.73;83.60;99880.30;1776541;80;21043;-76
2024/04/15 01:41:38;;;;;;;5.53;2.55;;;;;;;13.77;82.14;99891.15;1776737;81;21038;-76
2024/04/15 01:44:06;;;;;;;6.15;2.30;;;;;;;13.78;80.05;99887.32;1776688;81;21087;-76
2024/04/15 01:46:34;;;;;;;4.20;1.92;;;;;;;13.73;78.06;99885.80;1776746;80;21050;-75
2024/04/15 01:49:03;;;;;;;5.95;2.45;;;;;;;13.69;76.52;99885.42;1780032;79;20978;-75
2024/04/15 01:51:31;;;;;;;3.70;2.42;;;;;;;13.63;75.32;99883.02;1782432;80;20971;-76
2024/04/15 01:53:59;;;;;;;5.15;2.15;;;;;;;13.55;74.36;99879.73;1782497;80;21028;-75
2024/04/15 01:56:27;;;;;;;3.22;1.98;;;;;;;13.51;73.92;99882.11;1782443;80;21241;-77
2024/04/15 01:58:56;;;;;;;3.50;2.35;;;;;;;13.49;73.47;99878.74;1782101;80;21007;-76
2024/04/15 02:01:24;;;;;;;7.87;2.10;;;;;;;13.49;73.18;99877.91;1782700;80;20979;-77
2024/04/15 02:03:56;;;;;;;6.50;2.00;;;;;;;13.48;72.64;99877.06;1782355;80;21509;-76
2024/04/15 02:06:23;;;;;;;2.95;2.10;;;;;;;13.46;72.54;99880.58;1782394;80;21495;-75
2024/04/15 02:08:52;;;;;;;5.03;1.95;;;;;;;13.43;72.10;99874.69;1782453;80;20991;-77
2024/04/15 02:11:20;;;;;;;3.12;1.85;;;;;;;13.37;71.63;99870.95;1782475;80;21486;-75
2024/04/15 02:13:48;;;;;;;3.35;2.00;;;;;;;13.33;71.53;99866.97;1782711;80;21003;-75
2024/04/15 02:16:17;;;;;;;4.22;1.90;;;;;;;13.32;71.29;99862.53;1782469;80;21019;-75
2024/04/15 02:18:46;;;;;;;5.78;2.20;;;;;;;13.27;70.77;99856.87;1783725;80;21007;-74
2024/04/15 02:21:14;;;;;;;2.60;1.90;;;;;;;13.24;70.08;99866.43;1784466;80;20999;-76
2024/04/15 02:23:43;;;;;;;4.03;1.77;;;;;;;13.20;69.51;99854.20;1782918;80;20979;-76
2024/04/15 02:26:11;;;;;;;4.15;1.80;;;;;;;13.15;68.57;99862.27;1782645;80;21403;-76
2024/04/15 02:28:39;;;;;;;3.95;1.87;;;;;;;13.10;67.81;99864.86;1782518;80;20939;-77
2024/04/15 02:31:08;;;;;;;5.20;1.87;;;;;;;13.05;67.37;99855.61;1782379;80;21042;-77
2024/04/15 02:33:36;;;;;;;4.20;1.70;;;;;;;13.03;66.87;99865.99;1782829;80;21050;-76
2024/04/15 02:36:05;;;;;;;3.87;1.98;;;;;;;12.96;66.73;99863.27;1782509;80;20992;-77
2024/04/15 02:38:33;;;;;;;2.65;1.70;;;;;;;12.92;66.55;99864.80;1782726;80;21046;-77
2024/04/15 02:41:02;;;;;;;3.92;1.90;;;;;;;12.84;66.59;99871.95;1782486;80;21025;-76
2024/04/15 02:43:30;;;;;;;3.80;2.02;;;;;;;12.78;67.14;99870.95;1782649;80;20979;-76
2024/04/15 02:45:58;;;;;;;5.08;1.80;;;;;;;12.72;67.70;99870.48;1782500;80;21078;-75
2024/04/15 02:48:26;;;;;;;4.45;2.15;;;;;;;12.64;68.14;99868.01;1780781;80;20999;-76
2024/04/15 02:50:55;;;;;;;4.20;2.30;;;;;;;12.57;68.40;99872.72;1777012;81;20979;-74
2024/04/15 02:53:23;;;;;;;4.42;1.75;;;;;;;12.50;68.93;99876.05;1776812;81;21059;-76
2024/04/15 02:55:53;;;;;;;3.77;1.70;;;;;;;12.46;69.29;99873.44;1776782;81;21526;-76
2024/04/15 02:58:21;;;;;;;3.08;1.75;;;;;;;12.39;69.65;99876.23;1776803;81;21147;-76
2024/04/15 03:00:50;;;;;;;3.10;1.67;;;;;;;12.27;70.13;99871.95;1776973;80;20983;-76
2024/04/15 03:03:18;;;;;;;5.55;2.08;;;;;;;12.19;70.25;99876.88;1776893;80;20959;-76
2024/04/15 03:05:46;;;;;;;7.62;2.05;;;;;;;12.10;70.50;99880.95;1776850;81;21051;-76
2024/04/15 03:08:15;;;;;;;5.90;1.90;;;;;;;12.03;71.05;99877.70;1776841;80;21007;-76
2024/04/15 03:10:43;;;;;;;6.70;2.30;;;;;;;12.00;71.35;99885.54;1776895;80;21019;-75
2024/04/15 03:13:11;;;;;;;12.43;2.85;;;;;;;11.95;71.62;99894.44;1776849;81;21450;-74
2024/04/15 03:15:40;;;;;;;5.50;2.40;;;;;;;11.88;71.77;99889.52;1776721;81;21465;-76
2024/04/15 03:18:08;;;;;;;5.72;2.17;;;;;;;11.78;72.17;99896.53;1776910;81;21046;-76
2024/04/15 03:20:37;;;;;;;6.55;2.27;;;;;;;11.73;72.61;99904.02;1777015;80;21011;-76
2024/04/15 03:23:05;;;;;;;5.80;2.58;;;;;;;11.69;72.82;99906.31;1776795;80;21026;-76
2024/04/15 03:25:35;;;;;;;6.45;2.37;;;;;;;11.69;73.18;99909.59;1776900;80;21107;-76
2024/04/15 03:28:04;;;;;;;4.42;2.02;;;;;;;11.66;73.35;99906.75;1745637;81;20990;-76
2024/04/15 03:30:32;;;;;;;6.80;2.35;;;;;;;11.63;73.24;99913.20;1777011;81;21028;-74
2024/04/15 03:33:01;;;;;;;6.45;1.98;;;;;;;11.58;73.17;99922.08;1776905;81;21083;-76
2024/04/15 03:35:30;;;;;;;4.00;2.00;;;;;;;11.54;73.35;99930.43;1776919;81;20963;-76
2024/04/15 03:37:58;;;;;;;3.83;2.00;;;;;;;11.53;73.29;99929.27;1777129;81;21031;-75
2024/04/15 03:40:27;;;;;;;4.92;1.92;;;;;;;11.48;73.37;99936.78;1776884;80;21019;-74
2024/04/15 03:42:55;;;;;;;8.78;2.40;;;;;;;11.42;73.28;99931.63;1776910;81;21032;-75
2024/04/15 03:45:23;;;;;;;7.47;2.50;;;;;;;11.41;73.33;99929.09;1776765;80;20983;-77
2024/04/15 03:47:51;;;;;;;4.50;2.02;;;;;;;11.38;73.04;99924.88;1776980;80;21027;-77
2024/04/15 03:50:24;;;;;;;4.33;2.30;;;;;;;11.35;72.79;99928.59;1782256;79;21019;-75
2024/04/15 03:52:54;;;;;;;7.70;2.58;;;;;;;11.31;72.66;99925.95;1782529;80;21508;-77
2024/04/15 03:55:23;;;;;;;7.17;2.55;;;;;;;11.29;72.81;99926.70;1782507;80;21038;-77
2024/04/15 03:57:51;;;;;;;6.78;3.15;;;;;;;11.29;72.93;99919.84;1782707;80;21074;-76
2024/04/15 04:00:19;;;;;;;6.40;3.02;;;;;;;11.30;73.16;99912.77;1761811;80;21027;-75
2024/04/15 04:02:47;;;;;;;5.75;2.92;;;;;;;11.33;73.93;99912.88;1783222;80;21484;-77
2024/04/15 04:05:19;;;;;;;6.17;3.50;;;;;;;11.39;74.80;99910.64;1782388;80;21034;-74
2024/04/15 04:07:50;;;;;;;6.10;3.15;;;;;;;11.46;75.25;99911.46;1782526;80;21430;-76
2024/04/15 04:10:18;;;;;;;6.67;3.27;;;;;;;11.47;75.08;99908.19;1782492;80;21454;-76
2024/04/15 04:12:48;;;;;;;8.55;4.00;;;;;;;11.49;75.38;99906.08;1761355;80;21419;-76
2024/04/15 04:15:16;;;;;;;9.13;3.52;;;;;;;11.54;75.97;99903.00;1760934;80;20975;-76
2024/04/15 04:17:45;;;;;;;7.78;3.95;;;;;;;11.60;76.39;99895.27;1782804;80;21015;-76
2024/04/15 04:20:14;;;;;;;7.90;3.98;;;;;;;11.62;76.79;99894.52;1782525;80;20979;-76
2024/04/15 04:22:42;;;;;;;8.13;3.85;;;;;;;11.68;77.20;99893.66;1782590;80;21006;-76
2024/04/15 04:25:10;;;;;;;8.28;3.50;;;;;;;11.78;77.38;99891.88;1782532;80;20947;-76
2024/04/15 04:27:39;;;;;;;8.85;3.40;;;;;;;11.85;77.24;99899.55;1782550;80;20971;-75
2024/04/15 04:30:08;;;;;;;7.85;3.35;;;;;;;11.92;77.12;99895.41;1782728;80;21011;-78
2024/04/15 04:32:38;;;;;;;7.85;3.60;;;;;;;11.97;76.91;99887.36;1782703;80;21019;-76
2024/04/15 04:35:06;;;;;;;9.88;4.45;;;;;;;12.00;76.44;99894.63;1782583;80;21050;-73
2024/04/15 04:37:35;;;;;;;8.80;4.10;;;;;;;12.06;76.13;99901.14;1782633;80;21010;-76
2024/04/15 04:40:08;;;;;;;7.75;4.17;;;;;;;12.10;75.63;99905.12;1782318;80;21074;-75
2024/04/15 04:42:36;;;;;;;8.85;3.30;;;;;;;12.16;75.05;99905.62;1763437;81;21031;-76
2024/04/15 04:45:06;;;;;;;7.42;3.17;;;;;;;12.21;74.19;99909.08;1763515;81;20956;-78
2024/04/15 04:47:35;;;;;;;6.45;3.70;;;;;;;12.25;73.36;99907.05;1745387;82;21070;-76
2024/04/15 04:50:04;;;;;;;8.80;4.25;;;;;;;12.28;72.64;99896.98;1734105;82;21098;-76
2024/04/15 04:52:33;;;;;;;5.92;3.25;;;;;;;12.31;72.07;99899.30;1729226;83;21012;-76
2024/04/15 04:55:01;;;;;;;6.65;3.50;;;;;;;12.38;71.49;99902.87;1728858;83;21047;-76
2024/04/15 04:57:30;;;;;;;7.25;3.45;;;;;;;12.47;70.78;99895.20;1729347;82;21499;-75
2024/04/15 04:59:58;;;;;;;9.33;5.25;;;;;;;12.53;70.25;99894.31;1729309;83;21051;-76
2024/04/15 05:02:26;;;;;;;11.68;4.85;;;;;;;12.58;69.95;99892.27;1729253;82;21553;-76
2024/04/15 05:04:56;;;;;;;11.10;4.90;;;;;;;12.62;69.66;99883.88;1729363;83;21020;-75
2024/04/15 05:07:25;;;;;;;6.22;3.62;;;;;;;12.66;69.46;99882.37;1709110;83;21499;-75
2024/04/15 05:09:53;;;;;;;14.10;6.53;;;;;;;12.73;69.22;99883.16;1688942;84;21513;-76
2024/04/15 05:12:21;;;;;;;8.80;3.80;;;;;;;12.79;68.89;99873.17;1708744;84;21040;-77
2024/04/15 05:14:50;;;;;;;8.63;3.52;;;;;;;12.83;68.72;99866.99;1708989;84;21063;-75
2024/04/15 05:17:18;;;;;;;7.20;3.40;;;;;;;12.88;68.50;99856.69;1765815;81;21427;-77
2024/04/15 05:19:47;;;;;;;8.10;2.95;;;;;;;12.93;68.26;99857.70;1765762;81;21442;-77
2024/04/15 05:22:15;;;;;;;7.60;2.60;;;;;;;12.97;68.01;99859.45;1766058;81;20964;-77
2024/04/15 05:24:44;;;;;;;3.80;2.35;;;;;;;12.97;66.67;99858.92;1766004;81;20996;-77
2024/04/15 05:27:13;;;;;;;5.17;2.60;;;;;;;12.97;65.73;99848.45;1765895;81;21063;-77
2024/04/15 05:29:41;;;;;;;8.03;2.40;;;;;;;12.97;64.24;99849.30;1765910;81;21003;-75
2024/04/15 05:32:10;;;;;;;5.40;2.45;;;;;;;12.97;63.64;99846.55;1766065;81;21026;-78
2024/04/15 05:34:38;;;;;;;5.00;2.87;;;;;;;12.98;62.64;99844.11;1765744;81;20987;-77
2024/04/15 05:37:07;;;;;;;6.15;2.30;;;;;;;13.02;61.63;99851.41;1765984;81;20999;-77
2024/04/15 05:39:36;;;;;;;6.28;2.42;;;;;;;13.07;60.43;99846.59;1766044;81;21058;-77
2024/04/15 05:42:05;;;;;;;2.70;1.32;;;;;;;13.12;59.28;99849.50;1767491;81;21015;-76
2024/04/15 05:44:33;;;;;;;2.83;1.45;;;;;;;13.17;57.11;99845.56;1766087;81;20980;-77
2024/04/15 05:47:02;;;;;;;6.30;1.95;;;;;;;13.21;55.14;99838.54;1765901;81;21008;-75
2024/04/15 05:49:37;;;;;;;5.17;1.52;;;;;;;13.27;53.42;99834.33;1760539;81;21182;-77
2024/04/15 05:52:01;;;;;;;6.83;1.50;;;;;;;13.32;52.79;99832.27;1749583;82;21081;-77
2024/04/15 05:54:29;;;;;;;5.05;1.40;;;;;;;13.38;51.05;99826.38;1749865;82;21553;-77
2024/04/15 05:56:58;;;;;;;6.87;1.70;;;;;;;13.42;49.43;99831.20;1749879;81;21015;-77
2024/04/15 05:59:26;;;;;;;4.10;1.40;;;;;;;13.46;48.99;99832.42;1749959;82;21044;-77
2024/04/15 06:01:55;;;;;;;3.62;1.30;;;;;;;13.50;48.23;99825.37;1750030;81;21043;-77
2024/04/15 06:04:24;;;;;;;6.35;1.50;;;;;;;13.54;47.43;99827.13;1750383;81;21030;-77
2024/04/15 06:06:53;;;;;;;3.50;1.62;;;;;;;13.59;47.03;99834.16;1729571;82;21034;-78
2024/04/15 06:09:22;;;;;;;3.83;1.30;;;;;;;13.65;46.07;99834.61;1750043;81;21087;-75
2024/04/15 06:11:50;;;;;;;11.30;2.10;;;;;;;13.71;45.47;99832.87;1750152;82;21094;-77
2024/04/15 06:14:21;;;;;;;4.50;1.25;;;;;;;13.77;45.48;99850.69;1750019;82;21106;-76
2024/04/15 06:16:57;;;;;;;3.58;0.90;;;;;;;13.86;44.72;99852.05;1750097;81;21010;-77
2024/04/15 06:19:23;;;;;;;6.25;1.40;;;;;;;13.94;43.91;99839.33;1749709;82;21071;-77
2024/04/15 06:21:51;;;;;;;1.98;1.10;;;;;;;14.07;43.53;99833.32;1750056;81;21498;-73
2024/04/15 06:24:20;;;;;;;3.87;1.30;;;;;;;14.18;42.34;99825.09;1750095;81;21042;-76
2024/04/15 06:26:48;;;;;;;5.10;1.20;;;;;;;14.31;42.01;99825.45;1749867;81;21078;-76
2024/04/15 06:29:17;;;;;;;7.12;1.60;;;;;;;14.43;41.93;99817.24;1729653;82;21086;-76
2024/04/15 06:31:45;;;;;;;6.75;1.60;;;;;;;14.54;41.62;99823.31;1750014;80;21528;-77
2024/04/15 06:34:17;;;;;;;6.05;1.92;;;;;;;14.63;41.44;99830.16;1750006;81;21094;-77
2024/04/15 06:36:44;;;;;;;2.77;1.30;;;;;;;14.73;40.51;99825.42;1729910;82;21031;-76
2024/04/15 06:39:13;;;;;;;5.62;1.30;;;;;;;14.81;40.65;99828.67;1749850;80;21011;-77
2024/04/15 06:41:41;;;;;;;3.70;1.60;;;;;;;14.89;40.92;99831.61;1749846;82;21466;-76
2024/04/15 06:44:12;;;;;;;3.40;1.40;;;;;;;15.00;41.23;99832.72;1729543;82;21015;-77
2024/04/15 06:46:41;;;;;;;7.97;2.77;;;;;;;15.04;42.31;99818.20;1749969;81;21055;-77
2024/04/15 06:49:09;;;;;;;5.67;1.55;;;;;;;15.10;42.83;99817.77;1751088;81;21023;-74
2024/04/15 06:51:40;;;;;;;4.20;1.72;;;;;;;15.16;43.36;99818.19;1776700;81;21004;-77
2024/04/15 06:54:09;;;;;;;4.97;2.35;;;;;;;15.23;44.42;99807.31;1776681;80;21496;-76
2024/04/15 06:56:38;;;;;;;10.45;2.87;;;;;;;15.31;45.19;99793.67;1776726;80;20980;-75
2024/04/15 06:59:07;;;;;;;9.48;2.62;;;;;;;15.39;45.65;99801.58;1729126;81;21388;-77
2024/04/15 07:01:36;;;;;;;10.50;2.40;;;;;;;15.54;46.17;99791.39;1776983;81;21387;-77
2024/04/15 07:04:06;;;;;;;6.65;2.62;;;;;;;15.72;45.94;99796.80;1776737;81;21026;-75
2024/04/15 07:06:36;;;;;;;7.50;2.40;;;;;;;15.91;46.24;99791.91;1776744;81;21485;-77
2024/04/15 07:09:05;;;;;;;8.13;2.45;;;;;;;16.14;46.40;99800.62;1728632;81;20975;-78
2024/04/15 07:11:33;;;;;;;6.08;2.20;;;;;;;16.37;46.62;99795.52;1776732;81;20983;-77
2024/04/15 07:14:03;;;;;;;5.08;1.90;;;;;;;16.57;46.38;99799.17;1776797;80;21046;-77
2024/04/15 07:16:32;;;;;;;5.25;1.90;;;;;;;16.75;46.11;99794.25;1776712;80;21100;-77
2024/04/15 07:19:01;;;;;;;6.45;2.20;;;;;;;16.95;45.92;99790.98;1777210;80;21011;-77
2024/04/15 07:21:29;;;;;;;6.03;2.12;;;;;;;17.14;45.62;99782.38;1778701;80;21046;-77
2024/04/15 07:23:58;;;;;;;13.48;2.75;;;;;;;17.26;43.83;99801.09;1777430;81;21410;-77
2024/04/15 07:26:26;;;;;;;4.42;1.92;;;;;;;17.30;43.40;99793.41;1776728;80;21023;-76
2024/04/15 07:28:55;;;;;;;6.12;1.65;;;;;;;17.32;42.84;99798.14;1776947;81;21007;-76
2024/04/15 07:31:23;;;;;;;5.42;1.80;;;;;;;17.33;42.50;99778.21;1744823;81;21005;-75
2024/04/15 07:33:53;;;;;;;4.40;1.98;;;;;;;17.40;42.03;99770.00;1776833;81;21007;-75
2024/04/15 07:36:23;;;;;;;6.67;2.50;;;;;;;17.40;41.96;99782.46;1777071;81;20971;-78
2024/04/15 07:38:51;;;;;;;8.58;2.65;;;;;;;17.41;42.29;99781.91;1777100;81;20983;-77
2024/04/15 07:41:20;;;;;;;5.78;2.08;;;;;;;17.44;42.53;99762.84;1777281;81;21451;-81
2024/04/15 07:43:48;;;;;;;10.98;3.17;;;;;;;17.48;42.92;99767.32;1776673;81;21439;-78
2024/04/15 07:46:16;;;;;;;6.47;2.17;;;;;;;17.56;43.13;99753.05;1776686;80;21038;-79
2024/04/15 07:48:47;;;;;;;8.88;2.45;;;;;;;17.63;43.08;99738.99;1745473;81;21552;-77
2024/04/15 07:51:15;;;;;;;5.97;1.77;;;;;;;17.80;42.77;99734.22;1755135;81;21066;-78
2024/04/15 07:53:44;;;;;;;8.10;2.33;;;;;;;17.96;41.43;99731.05;1705871;82;21046;-79
2024/04/15 07:56:14;;;;;;;10.05;3.27;;;;;;;18.06;40.82;99720.89;1749864;82;21063;-80
2024/04/15 07:58:42;;;;;;;7.90;2.65;;;;;;;18.17;41.22;99716.27;1749970;82;21018;-78
2024/04/15 08:01:11;;;;;;;7.10;2.58;;;;;;;18.35;41.28;99696.48;1729677;82;21082;-79
2024/04/15 08:03:40;;;;;;;9.50;3.05;;;;;;;18.53;40.98;99698.00;1749870;81;21081;-80
2024/04/15 08:06:09;;;;;;;7.33;2.75;;;;;;;18.63;40.83;99705.03;1750101;81;21042;-77
2024/04/15 08:08:37;;;;;;;5.92;2.10;;;;;;;18.69;41.22;99722.55;1750011;81;21050;-75
2024/04/15 08:11:06;;;;;;;8.03;2.45;;;;;;;18.75;40.61;99721.48;1750101;82;21078;-78
2024/04/15 08:13:35;;;;;;;7.80;2.47;;;;;;;18.83;40.24;99729.85;1750027;81;21177;-79
2024/04/15 08:16:04;;;;;;;13.22;2.70;;;;;;;18.94;39.32;99713.02;1729551;82;21106;-77
2024/04/15 08:18:33;;;;;;;6.70;2.85;;;;;;;19.06;39.84;99713.35;1749963;82;21050;-77
2024/04/15 08:21:01;;;;;;;7.85;2.65;;;;;;;19.26;39.92;99714.28;1750052;81;21450;-78
2024/04/15 08:23:30;;;;;;;6.22;2.05;;;;;;;19.33;39.99;99716.25;1750120;82;21072;-77
2024/04/15 08:25:59;;;;;;;10.13;2.90;;;;;;;19.46;40.28;99698.23;1750012;82;21098;-77
2024/04/15 08:28:27;;;;;;;10.10;2.50;;;;;;;19.63;40.58;99711.96;1749878;82;21078;-74
2024/04/15 08:30:56;;;;;;;6.83;2.33;;;;;;;19.84;41.14;99716.45;1729539;82;21039;-75
2024/04/15 08:33:25;;;;;;;5.75;2.35;;;;;;;19.97;40.72;99714.24;1749956;81;21486;-75
2024/04/15 08:35:53;;;;;;;4.12;2.00;;;;;;;19.98;40.75;99713.97;1748639;81;21060;-75
2024/04/15 08:38:22;;;;;;;3.83;2.15;;;;;;;20.14;40.27;99714.26;1708107;81;21022;-72
2024/04/15 08:40:54;;;;;;;4.67;1.70;;;;;;;20.27;38.96;99708.73;1742427;81;21035;-75
2024/04/15 08:43:25;;;;;;;9.38;2.17;;;;;;;20.33;38.15;99713.18;1750019;81;21034;-75
2024/04/15 08:46:02;;;;;;;5.00;1.80;;;;;;;20.38;37.02;99713.17;1746514;81;21105;-83
2024/04/15 08:48:32;;;;;;;6.22;1.62;;;;;;;20.32;35.72;99714.30;1702295;83;21050;-83
2024/04/15 08:51:01;;;;;;;5.87;1.92;;;;;;;20.08;35.83;99706.19;1725931;82;21512;-84
2024/04/15 08:53:30;;;;;;;6.35;1.67;;;;;;;19.89;35.79;99697.00;1712482;83;21011;-80
2024/04/15 08:55:59;;;;;;;2.62;1.37;;;;;;;19.80;35.64;99693.09;1730926;83;21082;-81
2024/04/15 08:58:29;;;;;;;8.68;2.25;;;;;;;19.70;35.73;99695.86;1730843;82;20979;-81
2024/04/15 09:00:58;;;;;;;8.48;2.40;;;;;;;19.56;35.57;99694.71;1731947;83;21093;-84
2024/04/15 09:03:32;;;;;;;7.53;2.00;;;;;;;19.38;35.65;99695.98;1732563;83;20997;-81
2024/04/15 09:06:00;;;;;;;4.00;1.57;;;;;;;19.23;36.05;99695.38;1730741;83;21006;-80
2024/04/15 09:08:36;;;;;;;10.98;2.33;;;;;;;19.08;36.17;99706.98;1730743;83;20990;-81
2024/04/15 09:11:05;;;;;;;6.28;1.70;;;;;;;18.91;36.37;99704.39;1730700;82;21446;-81
2024/04/15 09:13:34;;;;;;;7.67;2.17;;;;;;;18.64;36.89;99710.87;1756669;81;21475;-80
2024/04/15 09:16:03;;;;;;;10.10;1.90;;;;;;;18.47;37.41;99721.26;1761294;81;21514;-81
2024/04/15 09:18:33;;;;;;;7.62;1.85;;;;;;;18.35;37.65;99728.93;1761198;81;21015;-82
2024/04/15 09:21:01;;;;;;;5.83;1.80;;;;;;;18.22;37.88;99730.21;1760871;81;20998;-80
2024/04/15 09:23:33;;;;;;;6.15;1.80;;;;;;;18.05;38.06;99727.54;1760959;81;21075;-80
2024/04/15 09:26:02;;;;;;;5.00;1.60;;;;;;;17.86;38.30;99726.25;1741470;81;21011;-72
2024/04/15 09:28:31;;;;;;;6.92;2.33;;;;;;;17.71;38.80;99721.39;1760865;81;21004;-73
2024/04/15 09:31:00;;;;;;;7.70;2.52;;;;;;;17.64;39.26;99723.50;1760737;81;21000;-76
2024/04/15 09:33:28;;;;;;;4.25;1.90;;;;;;;17.65;39.35;99722.40;1761161;81;21023;-75
2024/04/15 09:35:57;;;;;;;4.35;1.70;;;;;;;17.68;39.26;99719.14;1760832;81;21039;-75
2024/04/15 09:38:26;;;;;;;4.50;1.95;;;;;;;17.68;38.88;99723.30;1760760;81;21041;-74
2024/04/15 09:40:55;;;;;;;4.92;1.65;;;;;;;17.59;39.01;99719.28;1761021;81;20988;-73
2024/04/15 09:43:24;;;;;;;4.72;1.67;;;;;;;17.52;39.06;99726.93;1760822;81;20991;-74
2024/04/15 09:45:54;;;;;;;7.05;1.80;;;;;;;17.47;39.24;99708.88;1758206;81;21393;-75
2024/04/15 09:48:23;;;;;;;5.55;1.62;;;;;;;17.42;39.50;99708.27;1730736;83;21071;-76
2024/04/15 09:50:56;;;;;;;7.15;1.90;;;;;;;17.39;39.32;99703.79;1732787;81;21091;-74
2024/04/15 09:53:39;;;;;;;7.60;1.90;;;;;;;17.33;39.27;99712.59;1740610;81;21048;-74
2024/04/15 09:56:26;;;;;;;5.22;1.30;;;;;;;17.26;39.13;99712.50;1722058;82;21071;-74
2024/04/15 09:58:56;;;;;;;3.75;1.20;;;;;;;17.16;38.63;99684.14;1740291;82;21428;-76
2024/04/15 10:01:32;;;;;;;4.17;1.40;;;;;;;17.01;38.69;99695.86;1740208;82;21110;-74
2024/04/15 10:04:04;;;;;;;5.70;1.30;;;;;;;16.94;38.65;99688.84;1740572;81;21060;-73
2024/04/15 10:06:40;;;;;;;4.72;1.32;;;;;;;16.86;39.00;99690.64;1740391;82;21028;-75
2024/04/15 10:09:11;;;;;;;5.67;1.50;;;;;;;16.82;39.20;99701.92;1740381;82;21023;-73
2024/04/15 10:11:40;;;;;;;3.77;1.10;;;;;;;16.77;39.85;99688.31;1740180;81;21027;-73
2024/04/15 10:14:08;;;;;;;9.38;1.75;;;;;;;16.78;40.37;99698.84;1740306;82;21513;-73
2024/04/15 10:16:38;;;;;;;11.65;1.70;;;;;;;16.77;40.49;99687.48;1740369;82;20984;-75
2024/04/15 10:19:27;;;;;;;6.47;1.85;;;;;;;16.77;40.52;99687.48;1740236;82;21111;-74
2024/04/15 10:21:57;;;;;;;7.58;1.60;;;;;;;16.79;40.61;99667.31;1740222;81;21121;-73
2024/04/15 10:24:33;;;;;;;3.77;1.10;;;;;;;16.76;40.66;99642.37;1740396;81;21083;-75
2024/04/15 10:27:11;;;;;;;4.65;1.65;;;;;;;16.77;40.90;99638.52;1723763;82;21016;-74
2024/04/15 10:29:40;;;;;;;3.58;1.20;;;;;;;16.82;41.05;99627.22;1740325;81;21528;-73
2024/04/15 10:32:09;;;;;;;10.53;2.17;;;;;;;16.83;41.03;99628.90;1722128;82;21044;-74
2024/04/15 10:34:42;;;;;;;5.33;1.77;;;;;;;16.79;41.36;99628.03;1722042;81;21039;-73
2024/04/15 10:37:15;;;;;;;7.78;1.72;;;;;;;16.82;41.72;99616.16;1740422;81;21135;-75
2024/04/15 10:39:45;;;;;;;4.08;1.35;;;;;;;16.93;41.80;99617.98;1740737;81;21493;-73
2024/04/15 10:42:14;;;;;;;10.93;2.40;;;;;;;17.05;41.80;99626.98;1740527;81;21035;-72
2024/04/15 10:44:42;;;;;;;6.45;1.75;;;;;;;17.18;41.74;99621.05;1740703;81;21055;-73
2024/04/15 10:47:11;;;;;;;6.42;1.60;;;;;;;17.29;41.57;99615.91;1758962;80;21039;-72
2024/04/15 10:49:40;;;;;;;5.15;1.57;;;;;;;17.39;41.43;99627.09;1800048;80;21400;-73
2024/04/15 10:52:08;;;;;;;4.40;1.45;;;;;;;17.50;41.40;99619.72;1793610;79;21051;-74
2024/04/15 10:54:37;;;;;;;10.88;2.45;;;;;;;17.58;41.10;99624.81;1814928;79;21082;-77
2024/04/15 10:57:05;;;;;;;6.42;1.50;;;;;;;17.58;41.20;99615.67;1792336;79;21042;-74
2024/04/15 10:59:34;;;;;;;4.97;2.12;;;;;;;17.57;41.02;99625.91;1814419;79;21015;-74
2024/04/15 11:02:07;;;;;;;7.25;1.67;;;;;;;17.46;41.30;99635.19;1814643;79;20991;-74
2024/04/15 11:04:37;;;;;;;8.43;1.40;;;;;;;17.36;41.46;99631.77;1793123;79;21071;-74
2024/04/15 11:07:06;;;;;;;7.75;1.75;;;;;;;17.28;41.46;99660.47;1792623;78;21074;-74
2024/04/15 11:09:36;;;;;;;10.43;1.90;;;;;;;17.17;41.71;99640.14;1814720;79;21034;-71
2024/04/15 11:12:05;;;;;;;5.60;1.95;;;;;;;17.03;42.97;99649.94;1792763;79;21459;-73
2024/04/15 11:14:34;;;;;;;4.17;1.80;;;;;;;16.87;46.99;99672.95;1814734;79;21034;-78
2024/04/15 11:17:06;;;;;;;12.98;2.15;;;;;;;16.60;48.94;99676.42;1792405;79;21019;-79
2024/04/15 11:19:36;;;;;;;8.68;1.85;;;;;;;16.29;51.03;99711.08;1814620;79;21011;-77
2024/04/15 11:22:07;;;;;;;6.03;1.85;;;;;;;15.88;53.04;99689.34;1792555;79;21015;-76
2024/04/15 11:24:36;;;;;;;8.38;1.50;;;;;;;15.55;55.61;99677.09;1814623;79;21105;-74
2024/04/15 11:27:10;;;;;;;6.90;2.20;;;;;;;15.28;58.18;99677.41;1814593;79;21062;-76
2024/04/15 11:29:39;;;;;;;8.23;2.02;;;;;;;15.01;59.57;99670.24;1814607;79;21019;-75
2024/04/15 11:32:09;;;;;;;11.38;2.40;;;;;;;14.81;62.00;99678.89;1811947;78;21039;-77
2024/04/15 11:34:38;;;;;;;6.47;1.85;;;;;;;14.57;71.18;99694.64;1814934;79;21028;-78
2024/04/15 11:37:09;;;;;;;5.95;2.22;;;;;;;14.34;77.59;99720.80;1814513;79;21042;-79
2024/04/15 11:39:40;;;;;;;6.95;2.17;;;;;;;14.10;78.02;99743.32;1814657;79;21062;-80